DAL271 RJTT-KJFK
Flight info
| Callsign | DAL271 |
|---|---|
| Flight time | N/A |
| Altitude | 35000 |
| Route | ROVER3A INUBO Y808 NOLAX Y812 ADNAP OTR5 KALNA DCT 44N160E 45N170E/N0497F330 46N180E 50N170W 54N160W/N0493F350 58N150W 59N140W 58N130W DCT ETGEL DCT DAXIN/N0487F370 DCT 55N101W DCT FERNO DCT SEGAN DCT SSM DCT KENPA DCT TETOS DCT FARGN DCT JHW Q476 WLKES PUCKY1 |
| Aircraft | B772/H-V/N |
Departure
| Time | N/A |
|---|---|
| Airport | Tokyo Haneda International Airport (RJTT) |
Arrival
| Time | 2026-05-05 08:16 |
|---|---|
| Airport | John F. Kennedy International Airport (KJFK) |
| Time | Latitude | Longitude | Altitude | Speed | Heading |
|---|---|---|---|---|---|
| 2026-05-05 07:32 | 42.00108 | -78.37771 | 34778 ft | 511 kts | 111° |
| 2026-05-05 07:33 | 41.97788 | -78.28743 | 34775 ft | 510 kts | 111° |
| 2026-05-05 07:33 | 41.95466 | -78.19744 | 34783 ft | 510 kts | 111° |
| 2026-05-05 07:34 | 41.93136 | -78.10749 | 34793 ft | 509 kts | 111° |
| 2026-05-05 07:34 | 41.90801 | -78.01766 | 34790 ft | 509 kts | 111° |
| 2026-05-05 07:35 | 41.88462 | -77.92798 | 34793 ft | 509 kts | 111° |
| 2026-05-05 07:35 | 41.86118 | -77.83844 | 34795 ft | 508 kts | 111° |
| 2026-05-05 07:36 | 41.83778 | -77.74904 | 34796 ft | 508 kts | 111° |
| 2026-05-05 07:36 | 41.81437 | -77.65978 | 34797 ft | 507 kts | 111° |
| 2026-05-05 07:37 | 41.79094 | -77.57070 | 34792 ft | 507 kts | 111° |
| 2026-05-05 07:37 | 41.76730 | -77.48166 | 34795 ft | 507 kts | 112° |
| 2026-05-05 07:38 | 41.74346 | -77.39266 | 34801 ft | 508 kts | 112° |
| 2026-05-05 07:38 | 41.71960 | -77.30376 | 34807 ft | 508 kts | 112° |
| 2026-05-05 07:39 | 41.69567 | -77.21478 | 34791 ft | 508 kts | 111° |
| 2026-05-05 07:39 | 41.67170 | -77.12603 | 34795 ft | 507 kts | 111° |
| 2026-05-05 07:40 | 41.64769 | -77.03737 | 34803 ft | 506 kts | 112° |
| 2026-05-05 07:40 | 41.62365 | -76.94888 | 34810 ft | 506 kts | 112° |
| 2026-05-05 07:41 | 41.59958 | -76.86057 | 34811 ft | 506 kts | 111° |
| 2026-05-05 07:41 | 41.57561 | -76.77291 | 34814 ft | 506 kts | 111° |
| 2026-05-05 07:42 | 41.55124 | -76.68409 | 34810 ft | 506 kts | 111° |
| 2026-05-05 07:42 | 41.52713 | -76.59649 | 34813 ft | 507 kts | 112° |
| 2026-05-05 07:43 | 41.50275 | -76.50818 | 34822 ft | 507 kts | 112° |
| 2026-05-05 07:43 | 41.47834 | -76.41992 | 34827 ft | 507 kts | 112° |
| 2026-05-05 07:44 | 41.45382 | -76.33151 | 34289 ft | 507 kts | 112° |
| 2026-05-05 07:44 | 41.44161 | -76.28759 | 33898 ft | 503 kts | 112° |
| 2026-05-05 07:44 | 41.42947 | -76.24399 | 33477 ft | 502 kts | 112° |
| 2026-05-05 07:45 | 41.41728 | -76.20036 | 33047 ft | 504 kts | 112° |
| 2026-05-05 07:45 | 41.40504 | -76.15659 | 32628 ft | 504 kts | 112° |
| 2026-05-05 07:45 | 41.39281 | -76.11291 | 32215 ft | 503 kts | 112° |
| 2026-05-05 07:45 | 41.38057 | -76.06931 | 31804 ft | 502 kts | 112° |
| 2026-05-05 07:46 | 41.36836 | -76.02584 | 31395 ft | 501 kts | 112° |
| 2026-05-05 07:46 | 41.35612 | -75.98237 | 31010 ft | 501 kts | 112° |
| 2026-05-05 07:46 | 41.34388 | -75.93898 | 30608 ft | 501 kts | 112° |
| 2026-05-05 07:46 | 41.33165 | -75.89569 | 30248 ft | 500 kts | 112° |
| 2026-05-05 07:47 | 41.31943 | -75.85249 | 29816 ft | 497 kts | 112° |
| 2026-05-05 07:47 | 41.30731 | -75.80969 | 29373 ft | 491 kts | 112° |
| 2026-05-05 07:47 | 41.29535 | -75.76752 | 28913 ft | 486 kts | 112° |
| 2026-05-05 07:47 | 41.28342 | -75.72556 | 28490 ft | 484 kts | 112° |
| 2026-05-05 07:48 | 41.27150 | -75.68384 | 28054 ft | 481 kts | 113° |
| 2026-05-05 07:48 | 41.25870 | -75.64291 | 27621 ft | 479 kts | 115° |
| 2026-05-05 07:48 | 41.24510 | -75.60268 | 27203 ft | 476 kts | 116° |
| 2026-05-05 07:48 | 41.23133 | -75.56284 | 26785 ft | 473 kts | 116° |
| 2026-05-05 07:49 | 41.21769 | -75.52324 | 26396 ft | 471 kts | 116° |
| 2026-05-05 07:49 | 41.20422 | -75.48368 | 26002 ft | 468 kts | 116° |
| 2026-05-05 07:49 | 41.19096 | -75.44438 | 25607 ft | 466 kts | 116° |
| 2026-05-05 07:49 | 41.17780 | -75.40523 | 25208 ft | 463 kts | 116° |
| 2026-05-05 07:50 | 41.16467 | -75.36620 | 24851 ft | 461 kts | 116° |
| 2026-05-05 07:50 | 41.15169 | -75.32773 | 24681 ft | 454 kts | 116° |
| 2026-05-05 07:50 | 41.13880 | -75.28956 | 24582 ft | 455 kts | 116° |
| 2026-05-05 07:50 | 41.12579 | -75.25109 | 24466 ft | 459 kts | 116° |
| 2026-05-05 07:51 | 41.11272 | -75.21247 | 24340 ft | 458 kts | 116° |
| 2026-05-05 07:51 | 41.09986 | -75.17446 | 24225 ft | 457 kts | 116° |
| 2026-05-05 07:51 | 41.08668 | -75.13553 | 24092 ft | 456 kts | 116° |
| 2026-05-05 07:51 | 41.07367 | -75.09721 | 23946 ft | 456 kts | 116° |
| 2026-05-05 07:52 | 41.06081 | -75.05941 | 23773 ft | 456 kts | 116° |
| 2026-05-05 07:52 | 41.04776 | -75.02112 | 23592 ft | 455 kts | 117° |
| 2026-05-05 07:52 | 41.03474 | -74.98293 | 23374 ft | 454 kts | 117° |
| 2026-05-05 07:52 | 41.02177 | -74.94492 | 23164 ft | 452 kts | 117° |
| 2026-05-05 07:53 | 41.00883 | -74.90703 | 22950 ft | 451 kts | 117° |
| 2026-05-05 07:53 | 40.99678 | -74.86884 | 22723 ft | 447 kts | 111° |
| 2026-05-05 07:53 | 40.98944 | -74.82939 | 22476 ft | 437 kts | 101° |
| 2026-05-05 07:53 | 40.98636 | -74.79001 | 22232 ft | 426 kts | 98° |
| 2026-05-05 07:54 | 40.98276 | -74.75134 | 22032 ft | 421 kts | 101° |
| 2026-05-05 07:54 | 40.97836 | -74.71316 | 21821 ft | 418 kts | 101° |
| 2026-05-05 07:54 | 40.97370 | -74.67526 | 21628 ft | 417 kts | 102° |
| 2026-05-05 07:54 | 40.96903 | -74.63743 | 21408 ft | 416 kts | 102° |
| 2026-05-05 07:55 | 40.96443 | -74.59970 | 21207 ft | 415 kts | 102° |
| 2026-05-05 07:55 | 40.95990 | -74.56206 | 21004 ft | 414 kts | 102° |
| 2026-05-05 07:55 | 40.95540 | -74.52451 | 20796 ft | 413 kts | 102° |
| 2026-05-05 07:55 | 40.95093 | -74.48698 | 20606 ft | 412 kts | 102° |
| 2026-05-05 07:56 | 40.94647 | -74.44958 | 20405 ft | 412 kts | 102° |
| 2026-05-05 07:56 | 40.94201 | -74.41221 | 20208 ft | 411 kts | 102° |
| 2026-05-05 07:56 | 40.93754 | -74.37493 | 20006 ft | 410 kts | 102° |
| 2026-05-05 07:56 | 40.93308 | -74.33782 | 19796 ft | 406 kts | 102° |
| 2026-05-05 07:57 | 40.92870 | -74.30138 | 19554 ft | 397 kts | 102° |
| 2026-05-05 07:57 | 40.92443 | -74.26592 | 19229 ft | 382 kts | 102° |
| 2026-05-05 07:57 | 40.92036 | -74.23209 | 18877 ft | 363 kts | 103° |
| 2026-05-05 07:57 | 40.91643 | -74.19976 | 18553 ft | 354 kts | 103° |
| 2026-05-05 07:58 | 40.91247 | -74.16751 | 18267 ft | 356 kts | 103° |
| 2026-05-05 07:58 | 40.90605 | -74.13662 | 17890 ft | 343 kts | 123° |
| 2026-05-05 07:58 | 40.89197 | -74.11207 | 17587 ft | 331 kts | 143° |
| 2026-05-05 07:58 | 40.87381 | -74.09480 | 17277 ft | 324 kts | 155° |
| 2026-05-05 07:59 | 40.85394 | -74.08010 | 16960 ft | 323 kts | 156° |
| 2026-05-05 07:59 | 40.83447 | -74.06595 | 16663 ft | 324 kts | 156° |
| 2026-05-05 07:59 | 40.81477 | -74.05148 | 16362 ft | 324 kts | 155° |
| 2026-05-05 07:59 | 40.79515 | -74.03686 | 16055 ft | 325 kts | 155° |
| 2026-05-05 08:00 | 40.77550 | -74.02214 | 15771 ft | 325 kts | 155° |
| 2026-05-05 08:00 | 40.75611 | -74.00706 | 15455 ft | 322 kts | 149° |
| 2026-05-05 08:00 | 40.74050 | -73.98598 | 15124 ft | 324 kts | 130° |
| 2026-05-05 08:00 | 40.72726 | -73.96171 | 14866 ft | 328 kts | 130° |
| 2026-05-05 08:01 | 40.71352 | -73.93751 | 14591 ft | 331 kts | 131° |
| 2026-05-05 08:01 | 40.69952 | -73.91331 | 14315 ft | 332 kts | 131° |
| 2026-05-05 08:01 | 40.68558 | -73.88936 | 14070 ft | 326 kts | 131° |
| 2026-05-05 08:01 | 40.67197 | -73.86602 | 14016 ft | 317 kts | 131° |
| 2026-05-05 08:02 | 40.65892 | -73.84264 | 14006 ft | 319 kts | 128° |
| 2026-05-05 08:02 | 40.64641 | -73.81813 | 13981 ft | 325 kts | 127° |
| 2026-05-05 08:02 | 40.63401 | -73.79333 | 13665 ft | 324 kts | 127° |
| 2026-05-05 08:02 | 40.62169 | -73.76874 | 13243 ft | 317 kts | 127° |
| 2026-05-05 08:03 | 40.60973 | -73.74501 | 12769 ft | 308 kts | 127° |
| 2026-05-05 08:03 | 40.59788 | -73.72168 | 12352 ft | 307 kts | 127° |
| 2026-05-05 08:03 | 40.58592 | -73.69826 | 11971 ft | 309 kts | 127° |
| 2026-05-05 08:03 | 40.57390 | -73.67476 | 11567 ft | 310 kts | 127° |
| 2026-05-05 08:04 | 40.56187 | -73.65125 | 11188 ft | 309 kts | 127° |
| 2026-05-05 08:04 | 40.55275 | -73.62595 | 10758 ft | 310 kts | 103° |
| 2026-05-05 08:04 | 40.55290 | -73.59775 | 10375 ft | 311 kts | 75° |
| 2026-05-05 08:04 | 40.56204 | -73.57229 | 10010 ft | 308 kts | 51° |
| 2026-05-05 08:05 | 40.57727 | -73.55308 | 9608 ft | 302 kts | 32° |
| 2026-05-05 08:05 | 40.59445 | -73.53731 | 9213 ft | 301 kts | 31° |
| 2026-05-05 08:05 | 40.61160 | -73.52129 | 8797 ft | 303 kts | 32° |
| 2026-05-05 08:05 | 40.62875 | -73.50509 | 8402 ft | 304 kts | 32° |
| 2026-05-05 08:06 | 40.64601 | -73.48908 | 7991 ft | 303 kts | 29° |
| 2026-05-05 08:06 | 40.66431 | -73.47541 | 7619 ft | 302 kts | 24° |
| 2026-05-05 08:06 | 40.68289 | -73.46261 | 7269 ft | 297 kts | 23° |
| 2026-05-05 08:06 | 40.70088 | -73.45123 | 6907 ft | 277 kts | 21° |
| 2026-05-05 08:07 | 40.71776 | -73.44081 | 6655 ft | 260 kts | 21° |
| 2026-05-05 08:07 | 40.73396 | -73.43074 | 6337 ft | 257 kts | 22° |
| 2026-05-05 08:07 | 40.75041 | -73.42303 | 6009 ft | 244 kts | 359° |
| 2026-05-05 08:07 | 40.76620 | -73.42665 | 6014 ft | 227 kts | 328° |
| 2026-05-05 08:08 | 40.77514 | -73.43366 | 6012 ft | 225 kts | 317° |
| 2026-05-05 08:08 | 40.78590 | -73.44823 | 5868 ft | 221 kts | 299° |
| 2026-05-05 08:08 | 40.79401 | -73.46548 | 5570 ft | 220 kts | 295° |
| 2026-05-05 08:08 | 40.80176 | -73.48280 | 5276 ft | 218 kts | 295° |
| 2026-05-05 08:09 | 40.80950 | -73.49993 | 4977 ft | 216 kts | 295° |
| 2026-05-05 08:09 | 40.81719 | -73.51686 | 4663 ft | 212 kts | 293° |
| 2026-05-05 08:09 | 40.82115 | -73.53465 | 4334 ft | 198 kts | 268° |
| 2026-05-05 08:09 | 40.81926 | -73.55232 | 4053 ft | 193 kts | 253° |
| 2026-05-05 08:10 | 40.81504 | -73.56903 | 3763 ft | 192 kts | 250° |
| 2026-05-05 08:10 | 40.81063 | -73.58556 | 3458 ft | 190 kts | 250° |
| 2026-05-05 08:10 | 40.80627 | -73.60191 | 3151 ft | 188 kts | 251° |
| 2026-05-05 08:10 | 40.80206 | -73.61780 | 3055 ft | 176 kts | 249° |
| 2026-05-05 08:11 | 40.79541 | -73.63057 | 2992 ft | 169 kts | 223° |
| 2026-05-05 08:11 | 40.78599 | -73.64011 | 2997 ft | 172 kts | 221° |
| 2026-05-05 08:11 | 40.77647 | -73.64979 | 2990 ft | 174 kts | 223° |
| 2026-05-05 08:11 | 40.76648 | -73.65919 | 2762 ft | 178 kts | 219° |
| 2026-05-05 08:12 | 40.75611 | -73.66774 | 2533 ft | 173 kts | 217° |
| 2026-05-05 08:12 | 40.74610 | -73.67567 | 2304 ft | 161 kts | 217° |
| 2026-05-05 08:12 | 40.73693 | -73.68286 | 2108 ft | 149 kts | 217° |
| 2026-05-05 08:12 | 40.72815 | -73.68978 | 1942 ft | 142 kts | 217° |
| 2026-05-05 08:13 | 40.72011 | -73.69609 | 1735 ft | 127 kts | 218° |
| 2026-05-05 08:13 | 40.71286 | -73.70179 | 1579 ft | 117 kts | 219° |
| 2026-05-05 08:13 | 40.70593 | -73.70726 | 1449 ft | 117 kts | 217° |
| 2026-05-05 08:13 | 40.69894 | -73.71274 | 1280 ft | 116 kts | 217° |
| 2026-05-05 08:14 | 40.69175 | -73.71842 | 1109 ft | 124 kts | 216° |
| 2026-05-05 08:14 | 40.68430 | -73.72444 | 920 ft | 127 kts | 214° |
| 2026-05-05 08:14 | 40.67670 | -73.73043 | 725 ft | 128 kts | 212° |
| 2026-05-05 08:14 | 40.66887 | -73.73657 | 543 ft | 134 kts | 210° |
| 2026-05-05 08:15 | 40.66083 | -73.74281 | 400 ft | 133 kts | 209° |
| 2026-05-05 08:15 | 40.65288 | -73.74889 | 233 ft | 131 kts | 210° |
| 2026-05-05 08:15 | 40.64504 | -73.75501 | 62 ft | 131 kts | 209° |
| 2026-05-05 08:15 | 40.63783 | -73.76063 | 28 ft | 101 kts | 211° |
| 2026-05-05 08:16 | 40.63338 | -73.76414 | 30 ft | 48 kts | 211° |
| 2026-05-05 08:16 | 40.63135 | -73.76573 | 26 ft | 31 kts | 214° |
| 2026-05-05 08:16 | 40.62988 | -73.76766 | 28 ft | 30 kts | 238° |
| 2026-05-05 08:16 | 40.62937 | -73.76976 | 30 ft | 18 kts | 287° |
| 2026-05-05 08:17 | 40.62998 | -73.77124 | 29 ft | 18 kts | 301° |
| 2026-05-05 08:17 | 40.63065 | -73.77267 | 32 ft | 18 kts | 301° |
| 2026-05-05 08:17 | 40.63131 | -73.77411 | 33 ft | 18 kts | 301° |
| 2026-05-05 08:17 | 40.63195 | -73.77556 | 34 ft | 18 kts | 300° |
| 2026-05-05 08:18 | 40.63259 | -73.77703 | 32 ft | 18 kts | 300° |
| 2026-05-05 08:18 | 40.63340 | -73.77826 | 31 ft | 18 kts | 346° |
| 2026-05-05 08:18 | 40.63443 | -73.77758 | 30 ft | 17 kts | 33° |
| 2026-05-05 08:18 | 40.63536 | -73.77790 | 30 ft | 16 kts | 306° |
| 2026-05-05 08:19 | 40.63618 | -73.77887 | 26 ft | 16 kts | 343° |
| 2026-05-05 08:19 | 40.63730 | -73.77908 | 27 ft | 16 kts | 353° |
| 2026-05-05 08:19 | 40.63843 | -73.77926 | 27 ft | 16 kts | 353° |
| 2026-05-05 08:19 | 40.63953 | -73.77944 | 27 ft | 13 kts | 353° |
| 2026-05-05 08:20 | 40.64019 | -73.77963 | 27 ft | 8 kts | 334° |
| 2026-05-05 08:20 | 40.64032 | -73.78021 | 27 ft | 7 kts | 255° |
| 2026-05-05 08:20 | 40.64017 | -73.78066 | 27 ft | 3 kts | 246° |
| 2026-05-05 08:20 | 40.64014 | -73.78074 | 27 ft | 0 kts | 246° |